createdAt,value
2022-09-12T00:01:17.595Z,98851.06
2022-09-12T00:03:45.575Z,98850.09
2022-09-12T00:06:22.385Z,98844.84
2022-09-12T00:08:51.176Z,98850.19
2022-09-12T00:11:19.808Z,98851.38
2022-09-12T00:13:47.733Z,98837.31
2022-09-12T00:16:18.926Z,98840.09
2022-09-12T00:18:47.740Z,98843.72
2022-09-12T00:21:16.068Z,98837.59
2022-09-12T00:23:44.272Z,98830.56
2022-09-12T00:26:13.032Z,98827.84
2022-09-12T00:28:42.654Z,98822.03
2022-09-12T00:31:12.997Z,98823.91
2022-09-12T00:33:42.760Z,98815.00
2022-09-12T00:36:14.817Z,98816.53
2022-09-12T00:38:43.012Z,98809.56
2022-09-12T00:41:16.377Z,98805.19
2022-09-12T00:43:46.087Z,98802.81
2022-09-12T00:46:23.835Z,98798.44
2022-09-12T00:48:59.721Z,98797.53
2022-09-12T00:51:30.586Z,98796.75
2022-09-12T00:54:02.002Z,98797.69
2022-09-12T00:56:30.737Z,98790.53
2022-09-12T00:59:04.971Z,98787.81
2022-09-12T01:01:33.216Z,98789.94
2022-09-12T01:04:03.990Z,98794.50
2022-09-12T01:06:36.686Z,98790.59
2022-09-12T01:09:05.575Z,98791.31
2022-09-12T01:11:35.643Z,98785.34
2022-09-12T01:14:03.665Z,98786.56
2022-09-12T01:16:31.993Z,98783.09
2022-09-12T01:19:17.102Z,98791.59
2022-09-12T01:22:00.377Z,98789.88
2022-09-12T01:25:00.491Z,98779.72
2022-09-12T01:27:44.687Z,98782.09
2022-09-12T01:30:49.451Z,98785.53
2022-09-12T01:33:44.384Z,98790.13
2022-09-12T01:36:35.963Z,98788.34
2022-09-12T01:39:06.687Z,98781.19
2022-09-12T01:41:50.043Z,98779.19
2022-09-12T01:44:31.014Z,98787.22
2022-09-12T01:47:08.527Z,98787.88
2022-09-12T01:49:41.738Z,98783.88
2022-09-12T01:52:16.501Z,98781.06
2022-09-12T01:54:50.498Z,98781.38
2022-09-12T01:57:25.686Z,98781.97
2022-09-12T01:59:58.551Z,98778.53
2022-09-12T02:02:32.423Z,98766.41
2022-09-12T02:05:05.761Z,98762.91
2022-09-12T02:07:39.041Z,98755.06
2022-09-12T02:10:11.762Z,98758.63
2022-09-12T02:12:45.944Z,98763.56
2022-09-12T02:15:18.553Z,98759.06
2022-09-12T02:17:51.588Z,98752.94
2022-09-12T02:20:44.357Z,98752.91
2022-09-12T02:23:16.645Z,98754.94
2022-09-12T02:25:48.946Z,98746.94
2022-09-12T02:28:21.675Z,98740.63
2022-09-12T02:30:57.591Z,98744.81
2022-09-12T02:33:31.560Z,98741.16
2022-09-12T02:36:05.648Z,98728.75
2022-09-12T02:38:39.134Z,98726.88
2022-09-12T02:41:07.562Z,98736.59
2022-09-12T02:43:37.811Z,98739.66
2022-09-12T02:46:08.937Z,98739.84
2022-09-12T02:48:43.179Z,98719.94
2022-09-12T02:51:11.527Z,98718.66
2022-09-12T02:53:40.500Z,98708.69
2022-09-12T02:56:12.039Z,98704.19
2022-09-12T02:58:40.274Z,98707.75
2022-09-12T03:01:20.517Z,98712.41
2022-09-12T03:04:14.984Z,98707.25
2022-09-12T03:06:57.534Z,98707.19
2022-09-12T03:09:37.780Z,98706.41
2022-09-12T03:12:21.423Z,98704.47
2022-09-12T03:15:17.336Z,98699.88
2022-09-12T03:17:58.015Z,98697.25
2022-09-12T03:20:41.848Z,98703.53
2022-09-12T03:23:17.312Z,98709.88
2022-09-12T03:25:49.959Z,98709.97
2022-09-12T03:28:20.960Z,98706.72
2022-09-12T03:30:51.489Z,98692.06
2022-09-12T03:33:21.131Z,98698.16
2022-09-12T03:35:51.344Z,98698.91
2022-09-12T03:38:19.991Z,98703.41
2022-09-12T03:40:52.689Z,98696.25
2022-09-12T03:43:22.571Z,98695.31
2022-09-12T03:45:52.163Z,98697.03
2022-09-12T03:48:20.368Z,98699.16
2022-09-12T03:50:48.424Z,98684.88
2022-09-12T03:53:17.743Z,98693.47
2022-09-12T03:55:46.037Z,98692.69
2022-09-12T03:58:16.351Z,98691.78
2022-09-12T04:00:44.357Z,98691.69
2022-09-12T04:03:12.252Z,98696.13
2022-09-12T04:05:40.516Z,98704.84
2022-09-12T04:08:08.496Z,98701.47
2022-09-12T04:10:37.816Z,98700.13
2022-09-12T04:13:05.765Z,98699.50
2022-09-12T04:15:33.732Z,98696.09
2022-09-12T04:18:05.808Z,98701.16
2022-09-12T04:20:35.003Z,98711.41
2022-09-12T04:23:02.892Z,98698.09
2022-09-12T04:25:31.492Z,98698.09
2022-09-12T04:28:01.066Z,98700.91
2022-09-12T04:30:31.252Z,98695.47
2022-09-12T04:32:59.245Z,98701.69
2022-09-12T04:35:27.856Z,98695.47
2022-09-12T04:37:55.774Z,98700.69
2022-09-12T04:40:23.742Z,98703.25
2022-09-12T04:42:51.679Z,98709.28
2022-09-12T04:45:21.060Z,98702.16
2022-09-12T04:47:49.084Z,98710.91
2022-09-12T04:50:17.208Z,98706.53
2022-09-12T04:52:45.273Z,98714.53
2022-09-12T04:55:13.324Z,98717.13
2022-09-12T04:57:41.386Z,98729.50
2022-09-12T05:00:13.715Z,98731.34
2022-09-12T05:02:43.231Z,98739.28
2022-09-12T05:05:12.508Z,98740.28
2022-09-12T05:07:40.484Z,98749.22
2022-09-12T05:10:09.827Z,98752.13
2022-09-12T05:12:37.898Z,98751.19
2022-09-12T05:15:06.864Z,98769.66
2022-09-12T05:17:34.744Z,98768.72
2022-09-12T05:20:04.538Z,98775.66
2022-09-12T05:22:32.456Z,98767.78
2022-09-12T05:25:00.465Z,98769.13
2022-09-12T05:27:28.379Z,98767.25
2022-09-12T05:29:56.411Z,98768.84
2022-09-12T05:32:24.306Z,98774.09
2022-09-12T05:34:52.242Z,98768.00
2022-09-12T05:37:21.593Z,98776.75
2022-09-12T05:39:49.632Z,98778.47
2022-09-12T05:42:17.525Z,98770.63
2022-09-12T05:44:47.004Z,98756.81
2022-09-12T05:47:15.500Z,98764.59
2022-09-12T05:49:45.219Z,98765.34
2022-09-12T05:52:13.507Z,98774.00
2022-09-12T05:54:42.859Z,98774.16
2022-09-12T05:57:10.888Z,98767.78
2022-09-12T05:59:38.936Z,98764.03
2022-09-12T06:02:07.405Z,98760.31
2022-09-12T06:04:35.391Z,98759.34
2022-09-12T06:07:04.805Z,98775.94
2022-09-12T06:09:32.680Z,98788.94
2022-09-12T06:12:02.045Z,98780.09
2022-09-12T06:14:30.172Z,98782.19
2022-09-12T06:16:58.135Z,98791.56
2022-09-12T06:19:27.911Z,98791.13
2022-09-12T06:21:56.053Z,98792.78
2022-09-12T06:24:24.578Z,98784.22
2022-09-12T06:26:53.668Z,98789.16
2022-09-12T06:29:23.204Z,98791.16
2022-09-12T06:31:51.202Z,98789.16
2022-09-12T06:34:19.604Z,98786.59
2022-09-12T06:36:49.329Z,98795.66
2022-09-12T06:39:18.591Z,98794.72
2022-09-12T06:41:47.071Z,98804.72
2022-09-12T06:44:18.045Z,98805.47
2022-09-12T06:46:47.756Z,98801.78
2022-09-12T06:49:16.027Z,98812.47
2022-09-12T06:51:44.526Z,98811.03
2022-09-12T06:54:14.191Z,98804.63
2022-09-12T06:56:42.622Z,98800.50
2022-09-12T06:59:10.996Z,98794.06
2022-09-12T07:01:40.120Z,98789.22
2022-09-12T07:04:10.406Z,98787.13
2022-09-12T07:06:40.600Z,98796.47
2022-09-12T07:09:10.953Z,98804.13
2022-09-12T07:11:40.533Z,98799.84
2022-09-12T07:14:11.160Z,98803.78
2022-09-12T07:16:39.291Z,98803.81
2022-09-12T07:19:09.786Z,98800.28
2022-09-12T07:21:40.227Z,98800.16
2022-09-12T07:24:09.920Z,98803.66
2022-09-12T07:26:38.411Z,98794.56
2022-09-12T07:29:35.512Z,98784.66
2022-09-12T07:31:55.002Z,98787.13
2022-09-12T07:34:24.468Z,98785.94
2022-09-12T07:36:52.748Z,98781.22
2022-09-12T07:39:20.681Z,98792.94
2022-09-12T07:41:48.623Z,98798.16
2022-09-12T07:44:16.513Z,98798.88
2022-09-12T07:46:44.440Z,98797.94
2022-09-12T07:49:13.520Z,98786.22
2022-09-12T07:51:43.409Z,98785.09
2022-09-12T07:54:11.963Z,98786.44
2022-09-12T07:56:40.898Z,98785.06
2022-09-12T07:59:08.973Z,98791.16
2022-09-12T08:01:37.009Z,98786.81
2022-09-12T08:04:05.287Z,98786.78
2022-09-12T08:06:36.158Z,98784.50
2022-09-12T08:09:07.838Z,98778.69
2022-09-12T08:11:36.358Z,98778.25
2022-09-12T08:14:05.770Z,98779.41
2022-09-12T08:16:35.141Z,98781.41
2022-09-12T08:19:04.537Z,98790.69
2022-09-12T08:21:34.276Z,98794.91
2022-09-12T08:24:07.053Z,98785.50
2022-09-12T08:26:36.109Z,98797.09
2022-09-12T08:29:04.442Z,98791.88
2022-09-12T08:31:36.539Z,98788.84
2022-09-12T08:34:05.519Z,98787.09
2022-09-12T08:36:33.932Z,98789.47
2022-09-12T08:39:04.308Z,98787.03
2022-09-12T08:41:37.587Z,98792.53
2022-09-12T08:44:26.153Z,98804.16
2022-09-12T08:47:14.830Z,98806.97
2022-09-12T08:49:52.410Z,98809.16
2022-09-12T08:52:27.701Z,98811.25
2022-09-12T08:54:56.536Z,98820.41
2022-09-12T08:57:25.998Z,98816.16
2022-09-12T08:59:54.800Z,98828.19
2022-09-12T09:02:42.374Z,98826.63
2022-09-12T09:05:20.996Z,98838.53
2022-09-12T09:08:14.067Z,98830.13
2022-09-12T09:10:50.334Z,98830.47
2022-09-12T09:13:52.083Z,98833.16
2022-09-12T09:16:30.645Z,98838.88
2022-09-12T09:19:01.171Z,98832.41
2022-09-12T09:21:33.734Z,98842.19
2022-09-12T09:24:06.650Z,98845.94
2022-09-12T09:26:44.510Z,98826.00
2022-09-12T09:29:18.203Z,98830.00
2022-09-12T09:31:49.676Z,98833.09
2022-09-12T09:34:21.475Z,98831.41
2022-09-12T09:36:58.244Z,98835.22
2022-09-12T09:39:39.246Z,98839.13
2022-09-12T09:42:19.304Z,98842.06
2022-09-12T09:44:49.465Z,98839.25
2022-09-12T09:47:19.307Z,98837.56
2022-09-12T09:49:47.724Z,98842.28
2022-09-12T09:52:17.658Z,98843.81
2022-09-12T09:54:50.893Z,98853.34
2022-09-12T09:57:42.209Z,98855.28
2022-09-12T10:00:32.899Z,98846.81
2022-09-12T10:03:04.785Z,98850.53
2022-09-12T10:05:36.081Z,98853.81
2022-09-12T10:08:07.912Z,98840.59
2022-09-12T10:10:35.824Z,98842.19
2022-09-12T10:13:24.448Z,98845.19
2022-09-12T10:16:02.775Z,98835.25
2022-09-12T10:18:42.488Z,98847.22
2022-09-12T10:21:22.075Z,98839.88
2022-09-12T10:23:54.448Z,98844.69
2022-09-12T10:26:22.987Z,98836.56
2022-09-12T10:28:54.170Z,98832.22
2022-09-12T10:31:30.260Z,98839.44
2022-09-12T10:34:01.022Z,98830.47
2022-09-12T10:36:38.627Z,98831.31
2022-09-12T10:39:07.283Z,98833.09
2022-09-12T10:41:40.028Z,98830.69
2022-09-12T10:44:10.125Z,98831.56
2022-09-12T10:46:40.095Z,98835.81
2022-09-12T10:49:26.507Z,98836.13
2022-09-12T10:51:56.476Z,98837.16
2022-09-12T10:54:28.088Z,98836.06
2022-09-12T10:57:30.688Z,98846.47
2022-09-12T11:00:14.730Z,98826.94
2022-09-12T11:03:16.441Z,98825.38
2022-09-12T11:05:56.429Z,98825.25
2022-09-12T11:08:52.156Z,98820.50
2022-09-12T11:11:40.092Z,98826.41
2022-09-12T11:14:37.800Z,98819.38
2022-09-12T11:17:14.528Z,98822.72
2022-09-12T11:20:02.419Z,98805.44
2022-09-12T11:22:44.037Z,98804.34
2022-09-12T11:25:28.677Z,98806.41
2022-09-12T11:28:24.468Z,98795.03
2022-09-12T11:31:07.278Z,98803.47
2022-09-12T11:33:43.572Z,98801.03
2022-09-12T11:36:25.313Z,98796.94
2022-09-12T11:39:03.192Z,98785.97
2022-09-12T11:41:35.809Z,98776.06
2022-09-12T11:44:12.065Z,98766.25
2022-09-12T11:46:41.723Z,98762.53
2022-09-12T11:49:20.253Z,98755.03
2022-09-12T11:51:54.998Z,98753.00
2022-09-12T11:54:30.518Z,98753.63
2022-09-12T11:57:16.876Z,98741.53
2022-09-12T11:59:52.260Z,98729.41
2022-09-12T12:02:27.785Z,98725.75
2022-09-12T12:05:06.101Z,98715.13
2022-09-12T12:07:45.656Z,98718.50
2022-09-12T12:10:26.398Z,98712.69
2022-09-12T12:12:57.260Z,98721.78
2022-09-12T12:15:27.246Z,98713.31
2022-09-12T12:18:03.899Z,98704.56
2022-09-12T12:20:32.339Z,98707.69
2022-09-12T12:23:02.138Z,98699.72
2022-09-12T12:25:41.849Z,98707.00
2022-09-12T12:28:12.672Z,98713.91
2022-09-12T12:31:03.317Z,98712.66
2022-09-12T12:34:02.122Z,98716.66
2022-09-12T12:36:34.520Z,98723.59
2022-09-12T12:39:45.184Z,98717.09
2022-09-12T12:43:04.994Z,98718.81
2022-09-12T12:46:00.236Z,98712.75
2022-09-12T12:48:51.540Z,98715.28
2022-09-12T12:51:42.909Z,98713.47
2022-09-12T12:54:56.287Z,98702.84
2022-09-12T12:57:48.023Z,98689.94
2022-09-12T13:00:34.028Z,98695.59
2022-09-12T13:03:10.998Z,98683.91
2022-09-12T13:05:45.212Z,98687.63
2022-09-12T13:08:31.768Z,98683.13
2022-09-12T13:11:02.287Z,98681.00
2022-09-12T13:13:35.705Z,98671.72
2022-09-12T13:16:04.760Z,98667.69
2022-09-12T13:18:44.619Z,98657.84
2022-09-12T13:21:15.917Z,98656.00
2022-09-12T13:23:45.199Z,98658.88
2022-09-12T13:26:15.609Z,98670.78
2022-09-12T13:28:48.096Z,98672.59
2022-09-12T13:31:25.724Z,98671.66
2022-09-12T13:33:56.488Z,98666.09
2022-09-12T13:36:49.045Z,98665.75
2022-09-12T13:39:21.530Z,98648.53
2022-09-12T13:42:14.635Z,98648.97
2022-09-12T13:44:46.828Z,98644.22
2022-09-12T13:47:17.517Z,98644.34
2022-09-12T13:49:47.171Z,98642.81
2022-09-12T13:52:20.062Z,98642.66
2022-09-12T13:54:51.292Z,98642.66
2022-09-12T13:57:34.535Z,98642.50
2022-09-12T14:00:07.023Z,98639.19
2022-09-12T14:02:36.819Z,98634.69
2022-09-12T14:05:13.624Z,98633.72
2022-09-12T14:07:55.284Z,98633.00
2022-09-12T14:10:30.236Z,98625.38
2022-09-12T14:12:59.713Z,98619.63
2022-09-12T14:15:32.657Z,98609.69
2022-09-12T14:18:02.202Z,98604.94
2022-09-12T14:20:33.067Z,98596.44
2022-09-12T14:23:03.586Z,98595.78
2022-09-12T14:25:37.603Z,98586.88
2022-09-12T14:28:06.129Z,98583.88
2022-09-12T14:30:37.413Z,98588.59
2022-09-12T14:33:15.240Z,98579.47
2022-09-12T14:35:45.732Z,98578.91
2022-09-12T14:38:24.945Z,98574.50
2022-09-12T14:41:01.089Z,98575.31
2022-09-12T14:43:34.657Z,98572.75
2022-09-12T14:46:07.374Z,98573.84
2022-09-12T14:48:44.478Z,98563.72
2022-09-12T14:51:22.344Z,98567.25
2022-09-12T14:53:51.007Z,98562.44
2022-09-12T14:56:22.386Z,98564.22
2022-09-12T14:58:50.524Z,98560.16
2022-09-12T15:01:27.720Z,98565.78
2022-09-12T15:03:57.687Z,98562.28
2022-09-12T15:06:29.472Z,98564.75
2022-09-12T15:08:59.541Z,98563.78
2022-09-12T15:11:27.809Z,98558.19
2022-09-12T15:13:56.151Z,98560.84
2022-09-12T15:16:24.107Z,98556.88
2022-09-12T15:18:53.562Z,98551.06
2022-09-12T15:21:22.335Z,98551.44
2022-09-12T15:23:51.640Z,98555.94
2022-09-12T15:26:21.831Z,98552.56
2022-09-12T15:28:50.120Z,98542.06
2022-09-12T15:31:24.711Z,98533.50
2022-09-12T15:33:54.745Z,98528.66
2022-09-12T15:36:24.850Z,98522.38
2022-09-12T15:38:53.752Z,98519.66
2022-09-12T15:41:23.918Z,98526.50
2022-09-12T15:43:52.498Z,98528.41
2022-09-12T15:46:20.971Z,98516.34
2022-09-12T15:48:48.940Z,98517.84
2022-09-12T15:51:21.542Z,98512.47
2022-09-12T15:53:50.885Z,98504.69
2022-09-12T15:56:21.084Z,98509.19
2022-09-12T15:59:00.045Z,98502.69
2022-09-12T16:01:29.289Z,98501.00
2022-09-12T16:03:57.861Z,98507.88
2022-09-12T16:06:28.013Z,98509.69
2022-09-12T16:08:56.279Z,98508.31
2022-09-12T16:11:28.172Z,98502.91
2022-09-12T16:13:57.234Z,98506.72
2022-09-12T16:16:25.477Z,98516.22
2022-09-12T16:18:53.470Z,98521.63
2022-09-12T16:21:21.507Z,98510.44
2022-09-12T16:23:51.117Z,98513.69
2022-09-12T16:26:19.032Z,98510.75
2022-09-12T16:28:47.206Z,98515.78
2022-09-12T16:31:16.005Z,98521.19
2022-09-12T16:33:44.173Z,98515.16
2022-09-12T16:36:14.863Z,98521.88
2022-09-12T16:38:43.574Z,98528.91
2022-09-12T16:41:14.175Z,98520.59
2022-09-12T16:43:43.075Z,98522.09
2022-09-12T16:46:13.856Z,98520.31
2022-09-12T16:48:48.101Z,98520.41
2022-09-12T16:51:20.823Z,98523.81
2022-09-12T16:53:50.010Z,98519.34
2022-09-12T16:56:19.664Z,98520.69
2022-09-12T16:58:48.023Z,98511.72
2022-09-12T17:01:18.186Z,98504.06
2022-09-12T17:03:46.274Z,98505.09
2022-09-12T17:06:16.514Z,98503.81
2022-09-12T17:08:49.752Z,98497.97
2022-09-12T17:11:21.279Z,98491.63
2022-09-12T17:14:06.672Z,98497.47
2022-09-12T17:16:36.290Z,98498.88
2022-09-12T17:19:04.712Z,98499.56
2022-09-12T17:21:32.847Z,98502.06
2022-09-12T17:24:00.808Z,98509.63
2022-09-12T17:26:30.147Z,98515.34
2022-09-12T17:28:58.014Z,98506.69
2022-09-12T17:31:26.680Z,98510.81
2022-09-12T17:33:58.824Z,98505.41
2022-09-12T17:36:27.777Z,98505.00
2022-09-12T17:38:55.860Z,98503.03
2022-09-12T17:41:25.981Z,98497.13
2022-09-12T17:43:57.350Z,98501.22
2022-09-12T17:46:27.856Z,98491.81
2022-09-12T17:48:57.381Z,98487.25
2022-09-12T17:51:28.914Z,98485.22
2022-09-12T17:53:59.087Z,98473.81
2022-09-12T17:56:28.051Z,98473.84
2022-09-12T17:58:58.517Z,98471.22
2022-09-12T18:01:47.675Z,98467.66
2022-09-12T18:04:15.668Z,98468.00
2022-09-12T18:06:48.147Z,98463.59
2022-09-12T18:09:19.424Z,98456.59
2022-09-12T18:11:48.480Z,98454.16
2022-09-12T18:14:19.145Z,98448.28
2022-09-12T18:16:48.333Z,98454.16
2022-09-12T18:19:16.941Z,98458.44
2022-09-12T18:21:45.069Z,98461.09
2022-09-12T18:24:13.413Z,98456.56
2022-09-12T18:26:43.582Z,98462.56
2022-09-12T18:29:12.256Z,98458.50
2022-09-12T18:31:46.869Z,98461.63
2022-09-12T18:34:19.170Z,98457.75
2022-09-12T18:36:48.864Z,98452.69
2022-09-12T18:39:17.410Z,98448.81
2022-09-12T18:41:48.214Z,98457.47
2022-09-12T18:44:18.621Z,98467.19
2022-09-12T18:46:48.041Z,98471.94
2022-09-12T18:49:17.574Z,98481.78
2022-09-12T18:51:45.554Z,98485.31
2022-09-12T18:54:15.310Z,98485.63
2022-09-12T18:56:45.623Z,98487.22
2022-09-12T18:59:14.929Z,98481.22
2022-09-12T19:01:43.869Z,98486.56
2022-09-12T19:04:15.092Z,98494.09
2022-09-12T19:06:44.926Z,98505.06
2022-09-12T19:09:14.748Z,98504.28
2022-09-12T19:11:49.480Z,98512.72
2022-09-12T19:14:18.454Z,98527.78
2022-09-12T19:16:46.402Z,98532.59
2022-09-12T19:19:15.783Z,98535.03
2022-09-12T19:21:44.406Z,98537.25
2022-09-12T19:24:14.417Z,98529.22
2022-09-12T19:26:42.909Z,98520.56
2022-09-12T19:29:14.746Z,98525.38
2022-09-12T19:31:42.833Z,98520.81
2022-09-12T19:34:11.803Z,98543.41
2022-09-12T19:36:46.723Z,98557.97
2022-09-12T19:39:16.181Z,98563.88
2022-09-12T19:41:44.787Z,98561.19
2022-09-12T19:44:12.996Z,98575.78
2022-09-12T19:46:41.749Z,98580.19
2022-09-12T19:49:12.023Z,98594.66
2022-09-12T19:51:41.786Z,98621.59
2022-09-12T19:54:09.862Z,98644.31
2022-09-12T19:56:38.407Z,98692.03
2022-09-12T19:59:06.657Z,98760.97
2022-09-12T20:01:36.898Z,98797.75
2022-09-12T20:04:06.859Z,98839.16
2022-09-12T20:06:35.436Z,98840.41
2022-09-12T20:09:05.385Z,98851.56
2022-09-12T20:11:33.509Z,98882.56
2022-09-12T20:14:01.692Z,98923.56
2022-09-12T20:16:30.279Z,98919.41
2022-09-12T20:19:00.053Z,98913.03
2022-09-12T20:21:33.060Z,98934.25
2022-09-12T20:24:03.101Z,98929.22
2022-09-12T20:26:32.895Z,98933.69
2022-09-12T20:29:01.562Z,98959.13
2022-09-12T20:31:30.391Z,98928.75
2022-09-12T20:34:00.862Z,98934.25
2022-09-12T20:36:29.116Z,98931.16
2022-09-12T20:39:00.170Z,98934.41
2022-09-12T20:41:30.394Z,98903.00
2022-09-12T20:44:00.128Z,98910.69
2022-09-12T20:46:29.695Z,98919.91
2022-09-12T20:48:58.677Z,98932.53
2022-09-12T20:51:29.553Z,98930.78
2022-09-12T20:53:58.612Z,98939.28
2022-09-12T20:56:31.724Z,98934.22
2022-09-12T20:59:01.557Z,98911.53
2022-09-12T21:01:31.410Z,98899.69
2022-09-12T21:04:01.193Z,98877.38
2022-09-12T21:06:29.628Z,98872.75
2022-09-12T21:09:00.644Z,98866.13
2022-09-12T21:11:29.567Z,98866.81
2022-09-12T21:13:58.607Z,98853.91
2022-09-12T21:16:28.149Z,98849.34
2022-09-12T21:18:58.081Z,98881.50
2022-09-12T21:21:27.219Z,98908.47
2022-09-12T21:23:59.351Z,98914.50
2022-09-12T21:26:28.385Z,98887.66
2022-09-12T21:28:56.510Z,98855.31
2022-09-12T21:31:25.161Z,98842.25
2022-09-12T21:33:54.766Z,98843.22
2022-09-12T21:36:22.863Z,98857.44
2022-09-12T21:38:52.492Z,98852.66
2022-09-12T21:41:20.422Z,98860.22
2022-09-12T21:43:49.056Z,98857.13
2022-09-12T21:46:17.463Z,98821.66
2022-09-12T21:48:45.625Z,98811.38
2022-09-12T21:51:14.905Z,98810.06
2022-09-12T21:53:43.321Z,98804.03
2022-09-12T21:56:14.124Z,98792.09
2022-09-12T21:58:42.191Z,98785.41
2022-09-12T22:01:12.629Z,98775.84
2022-09-12T22:03:43.158Z,98777.56
2022-09-12T22:06:11.173Z,98771.91
2022-09-12T22:08:40.455Z,98770.75
2022-09-12T22:11:10.399Z,98782.75
2022-09-12T22:13:40.034Z,98788.06
2022-09-12T22:16:08.586Z,98772.69
2022-09-12T22:18:38.252Z,98763.16
2022-09-12T22:21:08.897Z,98751.91
2022-09-12T22:23:54.181Z,98756.84
2022-09-12T22:26:23.619Z,98766.25
2022-09-12T22:28:52.472Z,98754.13
2022-09-12T22:31:20.461Z,98736.78
2022-09-12T22:33:48.785Z,98726.38
2022-09-12T22:36:17.710Z,98741.63
2022-09-12T22:38:45.889Z,98742.94
2022-09-12T22:41:14.278Z,98728.84
2022-09-12T22:43:43.896Z,98733.31
2022-09-12T22:46:13.390Z,98722.91
2022-09-12T22:48:42.844Z,98744.25
2022-09-12T22:51:11.543Z,98730.09
2022-09-12T22:53:40.160Z,98740.88
2022-09-12T22:56:09.284Z,98742.19
2022-09-12T22:58:37.908Z,98727.81
2022-09-12T23:01:08.097Z,98733.16
2022-09-12T23:03:36.465Z,98735.69
2022-09-12T23:06:05.721Z,98731.69
2022-09-12T23:08:36.251Z,98745.91
2022-09-12T23:11:05.844Z,98732.25
2022-09-12T23:13:34.364Z,98720.47
2022-09-12T23:16:04.016Z,98723.44
2022-09-12T23:18:36.002Z,98725.00
2022-09-12T23:21:06.775Z,98715.50
2022-09-12T23:23:35.613Z,98715.63
2022-09-12T23:26:06.259Z,98712.09
2022-09-12T23:28:35.285Z,98715.25
2022-09-12T23:31:04.113Z,98712.53
2022-09-12T23:33:34.149Z,98711.81
2022-09-12T23:36:03.160Z,98713.81
2022-09-12T23:38:31.879Z,98719.75
2022-09-12T23:41:00.984Z,98706.59
2022-09-12T23:43:30.900Z,98708.53
2022-09-12T23:45:59.660Z,98709.16
2022-09-12T23:48:28.251Z,98699.25
2022-09-12T23:50:57.853Z,98699.75
2022-09-12T23:53:26.308Z,98706.59
2022-09-12T23:55:54.612Z,98696.13
2022-09-12T23:58:23.341Z,98710.81
